createdAt,value
2017-07-02T00:00:56.956Z,2.50
2017-07-02T00:03:24.462Z,2.00
2017-07-02T00:05:51.948Z,1.20
2017-07-02T00:08:19.460Z,1.47
2017-07-02T00:10:46.938Z,1.80
2017-07-02T00:13:14.447Z,1.40
2017-07-02T00:15:41.939Z,1.47
2017-07-02T00:18:10.211Z,2.00
2017-07-02T00:20:37.700Z,1.70
2017-07-02T00:23:05.207Z,1.80
2017-07-02T00:25:32.703Z,2.60
2017-07-02T00:28:00.967Z,1.17
2017-07-02T00:30:29.223Z,1.87
2017-07-02T00:32:56.726Z,1.10
2017-07-02T00:35:24.207Z,1.60
2017-07-02T00:37:51.716Z,1.33
2017-07-02T00:40:19.211Z,1.53
2017-07-02T00:42:46.711Z,1.97
2017-07-02T00:45:14.203Z,2.30
2017-07-02T00:47:42.472Z,1.33
2017-07-02T00:50:10.731Z,2.40
2017-07-02T00:52:38.232Z,1.90
2017-07-02T00:55:05.718Z,2.60
2017-07-02T00:57:33.234Z,1.30
2017-07-02T01:00:01.492Z,1.20
2017-07-02T01:02:29.004Z,1.00
2017-07-02T01:04:56.492Z,1.03
2017-07-02T01:07:24.003Z,2.87
2017-07-02T01:09:51.492Z,1.43
2017-07-02T01:12:18.997Z,1.37
2017-07-02T01:14:46.487Z,2.70
2017-07-02T01:17:13.976Z,1.73
2017-07-02T01:19:41.490Z,0.93
2017-07-02T01:22:08.976Z,1.27
2017-07-02T01:24:36.475Z,2.30
2017-07-02T01:27:03.964Z,1.70
2017-07-02T01:29:32.235Z,13.50
2017-07-02T01:32:00.484Z,2.40
2017-07-02T01:34:27.988Z,1.30
2017-07-02T01:36:55.475Z,1.27
2017-07-02T01:39:22.988Z,1.83
2017-07-02T01:41:51.248Z,1.00
2017-07-02T01:44:18.756Z,1.63
2017-07-02T01:46:46.246Z,2.07
2017-07-02T01:49:13.760Z,1.07
2017-07-02T01:51:41.252Z,1.20
2017-07-02T01:54:08.775Z,1.57
2017-07-02T01:56:37.042Z,0.80
2017-07-02T01:59:05.327Z,1.40
2017-07-02T02:01:45.363Z,1.27
2017-07-02T02:04:12.875Z,0.80
2017-07-02T02:06:40.358Z,2.83
2017-07-02T02:09:07.868Z,2.43
2017-07-02T02:11:35.351Z,1.43
2017-07-02T02:14:02.859Z,0.93
2017-07-02T02:16:30.364Z,0.80
2017-07-02T02:18:57.868Z,0.80
2017-07-02T02:21:25.355Z,3.30
2017-07-02T02:23:53.635Z,1.30
2017-07-02T02:26:21.139Z,1.50
2017-07-02T02:28:48.655Z,1.20
2017-07-02T02:31:16.912Z,1.57
2017-07-02T02:33:44.423Z,1.13
2017-07-02T02:36:11.917Z,0.97
2017-07-02T02:38:39.428Z,0.93
2017-07-02T02:41:06.912Z,1.30
2017-07-02T02:43:34.423Z,1.00
2017-07-02T02:46:01.912Z,1.07
2017-07-02T02:48:29.425Z,1.00
2017-07-02T02:50:56.910Z,1.97
2017-07-02T02:53:24.419Z,1.23
2017-07-02T02:55:51.911Z,1.33
2017-07-02T02:58:20.190Z,1.10
2017-07-02T03:00:47.685Z,1.30
2017-07-02T03:03:15.194Z,1.40
2017-07-02T03:05:42.905Z,2.90
2017-07-02T03:08:10.415Z,1.73
2017-07-02T03:10:37.899Z,1.03
2017-07-02T03:13:06.166Z,1.00
2017-07-02T03:15:34.420Z,1.33
2017-07-02T03:18:01.927Z,1.10
2017-07-02T03:20:29.410Z,1.10
2017-07-02T03:22:56.970Z,1.00
2017-07-02T03:25:24.442Z,1.20
2017-07-02T03:27:51.948Z,0.93
2017-07-02T03:30:19.448Z,0.93
2017-07-02T03:32:46.959Z,1.17
2017-07-02T03:35:14.443Z,1.27
2017-07-02T03:37:41.948Z,1.17
2017-07-02T03:40:09.436Z,1.00
2017-07-02T03:42:36.955Z,1.13
2017-07-02T03:45:04.443Z,1.43
2017-07-02T03:47:31.951Z,1.50
2017-07-02T03:49:59.439Z,0.80
2017-07-02T03:52:26.947Z,1.70
2017-07-02T03:54:54.428Z,0.90
2017-07-02T03:57:21.928Z,1.00
2017-07-02T03:59:49.412Z,0.70
2017-07-02T04:02:17.691Z,1.00
2017-07-02T04:04:45.940Z,1.43
2017-07-02T04:07:13.452Z,0.83
2017-07-02T04:09:40.943Z,1.43
2017-07-02T04:12:08.443Z,1.10
2017-07-02T04:14:36.698Z,1.23
2017-07-02T04:17:04.203Z,1.93
2017-07-02T04:19:31.912Z,3.30
2017-07-02T04:21:59.435Z,2.00
2017-07-02T04:24:26.932Z,3.17
2017-07-02T04:26:54.443Z,3.00
2017-07-02T04:29:21.935Z,3.37
2017-07-02T04:31:49.436Z,3.93
2017-07-02T04:34:17.683Z,3.90
2017-07-02T04:36:45.191Z,4.57
2017-07-02T04:39:12.679Z,7.47
2017-07-02T04:41:40.190Z,7.73
2017-07-02T04:44:08.446Z,6.73
2017-07-02T04:46:36.766Z,7.50
2017-07-02T04:49:04.307Z,7.63
2017-07-02T04:51:32.589Z,11.87
2017-07-02T04:54:00.847Z,11.10
2017-07-02T04:56:28.359Z,13.37
2017-07-02T04:58:55.853Z,16.03
2017-07-02T05:01:23.364Z,12.80
2017-07-02T05:03:50.860Z,13.20
2017-07-02T05:06:18.358Z,12.43
2017-07-02T05:08:46.621Z,14.03
2017-07-02T05:11:14.136Z,17.87
2017-07-02T05:13:41.627Z,17.70
2017-07-02T05:16:09.149Z,21.60
2017-07-02T05:18:36.652Z,18.40
2017-07-02T05:21:04.171Z,20.63
2017-07-02T05:23:31.665Z,17.47
2017-07-02T05:25:59.175Z,21.50
2017-07-02T05:28:26.893Z,19.33
2017-07-02T05:30:54.412Z,17.47
2017-07-02T05:33:24.041Z,24.63
2017-07-02T05:35:51.567Z,25.20
2017-07-02T05:38:19.080Z,21.53
2017-07-02T05:40:46.600Z,22.33
2017-07-02T05:43:14.100Z,24.40
2017-07-02T05:45:41.640Z,23.33
2017-07-02T05:48:09.151Z,28.43
2017-07-02T05:50:36.773Z,26.70
2017-07-02T05:53:04.311Z,25.53
2017-07-02T05:55:31.821Z,24.20
2017-07-02T05:57:59.868Z,26.33
2017-07-02T06:00:27.368Z,25.23
2017-07-02T06:02:54.892Z,28.63
2017-07-02T06:05:22.392Z,24.40
2017-07-02T06:07:49.912Z,26.63
2017-07-02T06:10:17.412Z,27.70
2017-07-02T06:12:44.928Z,28.37
2017-07-02T06:15:12.428Z,29.93
2017-07-02T06:17:39.955Z,29.00
2017-07-02T06:20:07.448Z,27.30
2017-07-02T06:22:34.970Z,31.60
2017-07-02T06:25:02.472Z,34.20
2017-07-02T06:27:29.995Z,29.40
2017-07-02T06:29:57.493Z,32.77
2017-07-02T06:32:25.016Z,32.33
2017-07-02T06:34:52.513Z,30.03
2017-07-02T06:37:20.031Z,32.50
2017-07-02T06:39:47.528Z,39.17
2017-07-02T06:42:15.049Z,30.20
2017-07-02T06:44:42.541Z,27.83
2017-07-02T06:47:10.051Z,29.00
2017-07-02T06:49:37.821Z,29.03
2017-07-02T06:52:05.503Z,28.17
2017-07-02T06:54:33.963Z,29.70
2017-07-02T06:57:01.511Z,28.60
2017-07-02T06:59:28.995Z,27.80
2017-07-02T07:01:56.503Z,25.67
2017-07-02T07:04:23.993Z,27.20
2017-07-02T07:06:51.494Z,22.97
2017-07-02T07:09:19.758Z,27.60
2017-07-02T07:11:48.049Z,28.63
2017-07-02T07:14:16.325Z,28.13
2017-07-02T07:16:44.615Z,28.23
2017-07-02T07:19:12.660Z,25.87
2017-07-02T07:21:40.177Z,24.33
2017-07-02T07:24:07.677Z,30.30
2017-07-02T07:26:35.200Z,23.97
2017-07-02T07:29:02.686Z,23.93
2017-07-02T07:31:30.187Z,24.90
2017-07-02T07:33:57.680Z,22.23
2017-07-02T07:36:25.187Z,23.90
2017-07-02T07:38:53.451Z,28.87
2017-07-02T07:41:20.963Z,20.47
2017-07-02T07:43:48.460Z,20.97
2017-07-02T07:46:15.968Z,20.33
2017-07-02T07:48:43.464Z,21.50
2017-07-02T07:51:10.972Z,23.83
2017-07-02T07:53:39.227Z,24.80
2017-07-02T07:56:06.792Z,24.80
2017-07-02T07:58:34.279Z,21.77
2017-07-02T08:01:01.788Z,23.80
2017-07-02T08:03:29.276Z,21.23
2017-07-02T08:05:57.554Z,20.10
2017-07-02T08:08:25.811Z,19.87
2017-07-02T08:10:53.320Z,22.90
2017-07-02T08:13:20.815Z,19.90
2017-07-02T08:15:48.326Z,20.50
2017-07-02T08:18:15.817Z,23.40
2017-07-02T08:20:43.324Z,24.23
2017-07-02T08:23:12.520Z,18.73
2017-07-02T08:25:40.028Z,19.30
2017-07-02T08:28:07.512Z,26.10
2017-07-02T08:30:35.059Z,19.13
2017-07-02T08:33:02.551Z,18.03
2017-07-02T08:35:30.831Z,20.23
2017-07-02T08:37:59.087Z,18.10
2017-07-02T08:40:26.597Z,15.53
2017-07-02T08:42:54.088Z,16.63
2017-07-02T08:45:21.599Z,19.03
2017-07-02T08:47:49.855Z,21.30
2017-07-02T08:50:17.366Z,16.23
2017-07-02T08:52:44.867Z,18.30
2017-07-02T08:55:12.387Z,17.80
2017-07-02T08:57:39.875Z,17.30
2017-07-02T09:00:07.387Z,15.10
2017-07-02T09:02:34.878Z,18.73
2017-07-02T09:05:02.387Z,18.97
2017-07-02T09:07:30.643Z,16.70
2017-07-02T09:09:58.156Z,25.03
2017-07-02T09:12:25.646Z,13.63
2017-07-02T09:14:53.151Z,16.30
2017-07-02T09:17:20.649Z,17.50
2017-07-02T09:19:48.165Z,15.83
2017-07-02T09:22:15.654Z,18.63
2017-07-02T09:24:43.171Z,15.67
2017-07-02T09:27:11.443Z,17.33
2017-07-02T09:29:38.963Z,20.63
2017-07-02T09:32:06.452Z,20.00
2017-07-02T09:34:33.956Z,23.40
2017-07-02T09:37:01.447Z,20.63
2017-07-02T09:39:28.967Z,20.80
2017-07-02T09:41:56.464Z,21.73
2017-07-02T09:44:23.992Z,15.20
2017-07-02T09:46:51.483Z,16.20
2017-07-02T09:49:18.991Z,21.40
2017-07-02T09:51:47.242Z,16.10
2017-07-02T09:54:14.748Z,16.70
2017-07-02T09:56:42.239Z,18.00
2017-07-02T09:59:09.747Z,15.70
2017-07-02T10:01:38.017Z,20.27
2017-07-02T10:04:06.299Z,12.57
2017-07-02T10:06:33.807Z,14.60
2017-07-02T10:09:01.311Z,11.00
2017-07-02T10:11:28.829Z,12.23
2017-07-02T10:13:56.331Z,15.03
2017-07-02T10:16:24.582Z,12.17
2017-07-02T10:18:52.091Z,9.83
2017-07-02T10:21:19.576Z,9.40
2017-07-02T10:23:47.079Z,7.00
2017-07-02T10:26:14.582Z,11.20
2017-07-02T10:28:42.071Z,10.77
2017-07-02T10:31:09.576Z,10.67
2017-07-02T10:33:37.831Z,7.53
2017-07-02T10:36:06.075Z,8.57
2017-07-02T10:38:33.611Z,8.70
2017-07-02T10:41:01.118Z,7.00
2017-07-02T10:43:28.615Z,11.20
2017-07-02T10:45:56.115Z,10.00
2017-07-02T10:48:23.595Z,9.07
2017-07-02T10:50:51.095Z,7.20
2017-07-02T10:53:18.576Z,10.40
2017-07-02T10:55:46.075Z,6.50
2017-07-02T10:58:13.556Z,9.57
2017-07-02T11:00:41.826Z,13.50
2017-07-02T11:03:10.074Z,9.60
2017-07-02T11:05:37.578Z,10.97
2017-07-02T11:08:05.067Z,9.27
2017-07-02T11:10:32.568Z,12.90
2017-07-02T11:13:00.064Z,9.47
2017-07-02T11:15:27.567Z,9.70
2017-07-02T11:17:55.063Z,8.30
2017-07-02T11:20:22.571Z,9.70
2017-07-02T11:22:50.060Z,10.10
2017-07-02T11:25:17.566Z,8.70
2017-07-02T11:27:45.057Z,7.43
2017-07-02T11:30:12.581Z,11.17
2017-07-02T11:32:40.059Z,7.67
2017-07-02T11:35:07.559Z,14.10
2017-07-02T11:37:35.532Z,9.03
2017-07-02T11:40:03.098Z,7.90
2017-07-02T11:42:30.591Z,13.80
2017-07-02T11:44:58.362Z,13.70
2017-07-02T11:47:25.900Z,7.40
2017-07-02T11:49:53.407Z,9.13
2017-07-02T11:52:20.899Z,8.63
2017-07-02T11:54:48.407Z,9.33
2017-07-02T11:57:15.895Z,11.83
2017-07-02T11:59:43.395Z,8.37
2017-07-02T12:02:10.879Z,6.80
2017-07-02T12:04:38.379Z,7.73
2017-07-02T12:07:05.864Z,8.90
2017-07-02T12:09:34.134Z,9.70
2017-07-02T12:12:02.387Z,6.63
2017-07-02T12:14:29.899Z,8.87
2017-07-02T12:16:57.827Z,5.27
2017-07-02T12:19:26.121Z,5.20
2017-07-02T12:21:54.459Z,5.67
2017-07-02T12:24:21.964Z,5.43
2017-07-02T12:26:50.218Z,4.57
2017-07-02T12:29:17.739Z,7.20
2017-07-02T12:31:45.223Z,8.30
2017-07-02T12:34:12.728Z,9.50
2017-07-02T12:36:40.208Z,7.53
2017-07-02T12:39:07.722Z,9.00
2017-07-02T12:41:35.207Z,5.40
2017-07-02T12:44:02.712Z,8.37
2017-07-02T12:46:30.211Z,5.77
2017-07-02T12:48:57.716Z,7.70
2017-07-02T12:51:25.215Z,5.57
2017-07-02T12:53:52.719Z,7.83
2017-07-02T12:56:20.207Z,5.10
2017-07-02T12:58:47.709Z,7.50
2017-07-02T13:01:15.959Z,6.60
2017-07-02T13:03:43.462Z,8.70
2017-07-02T13:06:10.955Z,7.43
2017-07-02T13:08:38.459Z,6.87
2017-07-02T13:11:06.724Z,4.70
2017-07-02T13:13:34.228Z,7.00
2017-07-02T13:16:01.711Z,8.47
2017-07-02T13:18:29.211Z,5.33
2017-07-02T13:20:56.715Z,6.60
2017-07-02T13:23:24.223Z,5.90
2017-07-02T13:25:51.709Z,4.67
2017-07-02T13:28:19.212Z,6.77
2017-07-02T13:30:46.715Z,4.97
2017-07-02T13:33:14.221Z,5.00
2017-07-02T13:35:42.943Z,7.03
2017-07-02T13:38:11.220Z,7.90
2017-07-02T13:40:38.713Z,11.53
2017-07-02T13:43:06.219Z,6.17
2017-07-02T13:45:33.710Z,5.83
2017-07-02T13:48:01.993Z,8.60
2017-07-02T13:50:29.477Z,8.50
2017-07-02T13:52:56.980Z,6.70
2017-07-02T13:55:24.472Z,5.77
2017-07-02T13:57:51.979Z,7.20
2017-07-02T14:00:19.475Z,7.67
2017-07-02T14:02:47.755Z,5.63
2017-07-02T14:05:16.016Z,10.00
2017-07-02T14:07:43.523Z,7.10
2017-07-02T14:10:11.024Z,7.43
2017-07-02T14:12:38.539Z,4.93
2017-07-02T14:15:06.048Z,7.00
2017-07-02T14:17:33.562Z,5.70
2017-07-02T14:20:01.067Z,5.93
2017-07-02T14:22:28.575Z,7.17
2017-07-02T14:24:56.100Z,16.67
2017-07-02T14:27:24.372Z,11.20
2017-07-02T14:29:51.863Z,13.67
2017-07-02T14:32:19.364Z,7.50
2017-07-02T14:34:46.850Z,6.67
2017-07-02T14:37:14.368Z,4.77
2017-07-02T14:39:41.855Z,5.80
2017-07-02T14:42:09.354Z,9.00
2017-07-02T14:44:36.839Z,8.80
2017-07-02T14:47:04.357Z,9.33
2017-07-02T14:49:32.620Z,5.47
2017-07-02T14:52:00.141Z,5.50
2017-07-02T14:54:27.633Z,5.70
2017-07-02T14:56:55.136Z,5.77
2017-07-02T14:59:22.624Z,7.20
2017-07-02T15:01:50.138Z,6.70
2017-07-02T15:04:17.651Z,9.47
2017-07-02T15:06:45.159Z,12.10
2017-07-02T15:09:12.647Z,12.17
2017-07-02T15:11:40.165Z,18.47
2017-07-02T15:14:08.429Z,29.23
2017-07-02T15:16:36.043Z,11.83
2017-07-02T15:19:03.561Z,20.77
2017-07-02T15:21:31.814Z,11.13
2017-07-02T15:23:59.327Z,15.83
2017-07-02T15:26:26.826Z,6.33
2017-07-02T15:28:54.337Z,6.97
2017-07-02T15:31:21.827Z,6.27
2017-07-02T15:33:49.328Z,5.43
2017-07-02T15:36:16.811Z,8.17
2017-07-02T15:38:44.330Z,4.60
2017-07-02T15:41:11.888Z,5.30
2017-07-02T15:43:39.482Z,8.03
2017-07-02T15:46:07.817Z,17.50
2017-07-02T15:48:35.323Z,14.17
2017-07-02T15:51:03.581Z,8.07
2017-07-02T15:53:31.090Z,5.37
2017-07-02T15:55:59.933Z,7.50
2017-07-02T15:58:27.531Z,8.23
2017-07-02T16:00:55.164Z,11.37
2017-07-02T16:03:22.767Z,5.50
2017-07-02T16:05:50.311Z,4.87
2017-07-02T16:08:17.840Z,6.40
2017-07-02T16:10:46.125Z,6.77
2017-07-02T16:13:14.456Z,4.17
2017-07-02T16:15:41.984Z,4.00
2017-07-02T16:18:09.535Z,4.73
2017-07-02T16:20:37.064Z,5.03
2017-07-02T16:23:04.640Z,7.07
2017-07-02T16:25:32.145Z,4.53
2017-07-02T16:27:59.725Z,4.63
2017-07-02T16:30:27.285Z,5.10
2017-07-02T16:32:54.864Z,4.50
2017-07-02T16:35:22.407Z,4.57
2017-07-02T16:37:50.009Z,6.17
2017-07-02T16:40:18.366Z,4.80
2017-07-02T16:42:45.914Z,4.00
2017-07-02T16:45:13.458Z,4.80
2017-07-02T16:47:41.052Z,4.00
2017-07-02T16:50:08.609Z,4.10
2017-07-02T16:52:36.164Z,4.57
2017-07-02T16:55:03.681Z,10.00
2017-07-02T16:57:31.273Z,6.40
2017-07-02T16:59:59.017Z,9.30
2017-07-02T17:02:26.580Z,4.23
2017-07-02T17:04:54.115Z,6.20
2017-07-02T17:07:21.652Z,4.40
2017-07-02T17:09:49.205Z,4.93
2017-07-02T17:12:17.574Z,4.70
2017-07-02T17:14:45.130Z,3.10
2017-07-02T17:17:12.680Z,4.07
2017-07-02T17:19:40.209Z,4.00
2017-07-02T17:22:07.743Z,5.40
2017-07-02T17:24:35.274Z,5.93
2017-07-02T17:27:03.027Z,6.60
2017-07-02T17:29:30.671Z,4.27
2017-07-02T17:31:58.324Z,8.37
2017-07-02T17:34:26.031Z,4.37
2017-07-02T17:36:53.862Z,3.97
2017-07-02T17:39:22.253Z,4.07
2017-07-02T17:44:30.571Z,3.27
2017-07-02T17:46:58.079Z,4.07
2017-07-02T17:49:25.587Z,2.93
2017-07-02T17:51:53.102Z,3.93
2017-07-02T17:54:20.592Z,3.03
2017-07-02T17:56:48.093Z,3.00
2017-07-02T17:59:15.595Z,4.50
2017-07-02T18:01:43.101Z,2.40
2017-07-02T18:04:10.603Z,3.70
2017-07-02T18:06:38.127Z,2.60
2017-07-02T18:09:05.620Z,2.60
2017-07-02T18:11:33.142Z,3.80
2017-07-02T18:14:00.647Z,3.70
2017-07-02T18:16:28.160Z,3.50
2017-07-02T18:18:55.654Z,3.87
2017-07-02T18:21:23.172Z,2.73
2017-07-02T18:23:50.668Z,3.30
2017-07-02T18:26:18.188Z,3.97
2017-07-02T18:28:45.751Z,3.03
2017-07-02T18:31:13.283Z,3.00
2017-07-02T18:33:40.812Z,2.57
2017-07-02T18:36:08.336Z,3.80
2017-07-02T18:38:35.848Z,3.90
2017-07-02T18:41:03.392Z,2.70
2017-07-02T18:43:31.659Z,3.77
2017-07-02T18:45:59.179Z,4.30
2017-07-02T18:48:26.676Z,3.57
2017-07-02T18:50:54.190Z,3.10
2017-07-02T18:53:21.708Z,5.60
2017-07-02T18:55:49.281Z,4.03
2017-07-02T18:58:16.820Z,2.97
2017-07-02T19:00:44.349Z,3.00
2017-07-02T19:03:11.865Z,2.60
2017-07-02T19:05:39.397Z,3.23
2017-07-02T19:08:06.929Z,4.70
2017-07-02T19:10:34.468Z,7.03
2017-07-02T19:13:01.989Z,4.10
2017-07-02T19:15:29.633Z,3.17
2017-07-02T19:17:57.145Z,3.50
2017-07-02T19:20:25.463Z,4.60
2017-07-02T19:22:52.978Z,3.03
2017-07-02T19:25:20.535Z,3.70
2017-07-02T19:27:48.813Z,3.40
2017-07-02T19:30:16.342Z,3.97
2017-07-02T19:32:43.884Z,3.20
2017-07-02T19:35:11.479Z,5.57
2017-07-02T19:37:39.024Z,3.40
2017-07-02T19:40:06.556Z,2.97
2017-07-02T19:42:34.850Z,3.47
2017-07-02T19:45:02.412Z,2.90
2017-07-02T19:47:29.981Z,3.73
2017-07-02T19:49:57.518Z,3.83
2017-07-02T19:52:25.070Z,4.00
2017-07-02T19:54:52.787Z,3.63
2017-07-02T19:57:20.468Z,2.90
2017-07-02T19:59:48.091Z,3.73
2017-07-02T20:02:15.662Z,2.93
2017-07-02T20:04:43.235Z,3.70
2017-07-02T20:07:10.840Z,3.50
2017-07-02T20:09:39.150Z,4.17
2017-07-02T20:12:06.811Z,4.93
2017-07-02T20:14:34.377Z,2.93
2017-07-02T20:17:02.769Z,4.13
2017-07-02T20:19:30.390Z,2.73
2017-07-02T20:22:04.441Z,3.00
2017-07-02T20:24:32.017Z,2.57
2017-07-02T20:27:00.312Z,3.20
2017-07-02T20:29:27.915Z,3.80
2017-07-02T20:31:55.521Z,3.60
2017-07-02T20:34:23.101Z,2.50
2017-07-02T20:36:50.647Z,3.00
2017-07-02T20:39:18.265Z,2.20
2017-07-02T20:41:45.840Z,2.20
2017-07-02T20:44:13.394Z,2.13
2017-07-02T20:46:41.764Z,2.10
2017-07-02T20:49:09.283Z,3.33
2017-07-02T20:51:36.842Z,2.13
2017-07-02T20:54:05.409Z,2.40
2017-07-02T20:56:33.124Z,1.50
2017-07-02T20:59:00.662Z,2.10
2017-07-02T21:01:28.225Z,2.40
2017-07-02T21:03:55.826Z,2.00
2017-07-02T21:06:23.434Z,2.17
2017-07-02T21:08:51.010Z,1.93
2017-07-02T21:11:18.621Z,2.97
2017-07-02T21:13:47.029Z,1.73
2017-07-02T21:16:14.624Z,3.07
2017-07-02T21:18:42.166Z,2.80
2017-07-02T21:21:09.734Z,1.97
2017-07-02T21:23:37.314Z,5.90
2017-07-02T21:26:04.869Z,1.70
2017-07-02T21:28:32.410Z,4.77
2017-07-02T21:30:59.943Z,1.43
2017-07-02T21:33:27.581Z,1.50
2017-07-02T21:35:55.199Z,2.60
2017-07-02T21:38:22.795Z,1.30
2017-07-02T21:40:50.358Z,1.90
2017-07-02T21:43:17.952Z,1.83
2017-07-02T21:45:45.500Z,1.70
2017-07-02T21:48:13.027Z,3.13
2017-07-02T21:50:41.336Z,2.50
2017-07-02T21:53:08.918Z,1.70
2017-07-02T21:55:36.530Z,1.80
2017-07-02T21:58:04.089Z,1.23
2017-07-02T22:00:31.651Z,1.77
2017-07-02T22:02:59.267Z,2.10
2017-07-02T22:05:26.895Z,3.40
2017-07-02T22:07:54.498Z,2.20
2017-07-02T22:10:22.101Z,2.03
2017-07-02T22:12:49.679Z,2.10
2017-07-02T22:15:19.211Z,2.07
2017-07-02T22:17:46.760Z,2.73
2017-07-02T22:20:15.139Z,4.73
2017-07-02T22:22:42.688Z,2.33
2017-07-02T22:25:10.256Z,2.17
2017-07-02T22:27:37.773Z,3.97
2017-07-02T22:30:05.338Z,5.83
2017-07-02T22:32:32.861Z,5.23
2017-07-02T22:35:00.391Z,3.27
2017-07-02T22:37:27.904Z,2.90
2017-07-02T22:39:55.438Z,3.83
2017-07-02T22:42:22.947Z,2.67
2017-07-02T22:44:50.477Z,6.67
2017-07-02T22:47:17.996Z,3.97
2017-07-02T22:49:45.528Z,3.70
2017-07-02T22:52:13.049Z,4.67
2017-07-02T22:54:40.588Z,3.40
2017-07-02T22:57:08.110Z,3.10
2017-07-02T22:59:35.639Z,4.70
2017-07-02T23:02:03.918Z,3.80
2017-07-02T23:04:31.443Z,4.13
2017-07-02T23:06:58.972Z,3.40
2017-07-02T23:09:26.493Z,6.70
2017-07-02T23:11:54.784Z,6.17
2017-07-02T23:14:22.327Z,6.03
2017-07-02T23:16:50.592Z,3.20
2017-07-02T23:19:18.125Z,4.70
2017-07-02T23:21:45.624Z,4.13
2017-07-02T23:24:13.164Z,3.80
2017-07-02T23:26:40.690Z,4.73
2017-07-02T23:29:08.224Z,5.60
2017-07-02T23:31:35.741Z,9.70
2017-07-02T23:34:03.264Z,4.43
2017-07-02T23:36:30.819Z,4.40
2017-07-02T23:38:58.340Z,5.30
2017-07-02T23:41:25.884Z,5.57
2017-07-02T23:43:53.412Z,4.03
2017-07-02T23:46:20.928Z,4.97
2017-07-02T23:48:48.456Z,5.63
2017-07-02T23:51:16.730Z,10.80
2017-07-02T23:53:44.271Z,4.53
2017-07-02T23:56:11.776Z,5.30
2017-07-02T23:58:39.305Z,7.50
